sensor_id;sensor_type;location;lat;lon;timestamp;temperature;humidity
24814;DHT22;12904;50.088;11.414;2023-05-10T00:00:12;12.80;99.90
24814;DHT22;12904;50.088;11.414;2023-05-10T00:02:38;12.80;99.90
24814;DHT22;12904;50.088;11.414;2023-05-10T00:05:04;12.80;99.90
24814;DHT22;12904;50.088;11.414;2023-05-10T00:07:30;12.80;99.90
24814;DHT22;12904;50.088;11.414;2023-05-10T00:09:56;12.80;99.90
24814;DHT22;12904;50.088;11.414;2023-05-10T00:12:21;12.80;99.90
24814;DHT22;12904;50.088;11.414;2023-05-10T00:14:47;12.80;99.90
24814;DHT22;12904;50.088;11.414;2023-05-10T00:17:13;12.80;99.90
24814;DHT22;12904;50.088;11.414;2023-05-10T00:19:38;12.80;99.90
24814;DHT22;12904;50.088;11.414;2023-05-10T00:22:04;12.80;99.90
24814;DHT22;12904;50.088;11.414;2023-05-10T00:24:30;12.80;99.90
24814;DHT22;12904;50.088;11.414;2023-05-10T00:26:55;12.80;99.90
24814;DHT22;12904;50.088;11.414;2023-05-10T00:29:21;12.80;99.90
24814;DHT22;12904;50.088;11.414;2023-05-10T00:31:47;12.80;99.90
24814;DHT22;12904;50.088;11.414;2023-05-10T00:34:12;12.80;99.90
24814;DHT22;12904;50.088;11.414;2023-05-10T00:36:38;12.80;99.90
24814;DHT22;12904;50.088;11.414;2023-05-10T00:39:03;12.80;99.90
24814;DHT22;12904;50.088;11.414;2023-05-10T00:41:29;12.80;99.90
24814;DHT22;12904;50.088;11.414;2023-05-10T00:43:58;12.80;99.90
24814;DHT22;12904;50.088;11.414;2023-05-10T00:46:23;12.80;99.90
24814;DHT22;12904;50.088;11.414;2023-05-10T00:48:50;12.80;99.90
24814;DHT22;12904;50.088;11.414;2023-05-10T00:51:16;12.80;99.90
24814;DHT22;12904;50.088;11.414;2023-05-10T00:53:41;12.70;99.90
24814;DHT22;12904;50.088;11.414;2023-05-10T00:56:08;12.70;99.90
24814;DHT22;12904;50.088;11.414;2023-05-10T00:58:33;12.70;99.90
24814;DHT22;12904;50.088;11.414;2023-05-10T01:00:59;12.60;99.90
24814;DHT22;12904;50.088;11.414;2023-05-10T01:03:25;12.60;99.90
24814;DHT22;12904;50.088;11.414;2023-05-10T01:05:51;12.50;99.90
24814;DHT22;12904;50.088;11.414;2023-05-10T01:08:17;12.40;99.90
24814;DHT22;12904;50.088;11.414;2023-05-10T01:10:43;12.30;99.90
24814;DHT22;12904;50.088;11.414;2023-05-10T01:13:09;12.20;99.90
24814;DHT22;12904;50.088;11.414;2023-05-10T01:15:35;12.10;99.90
24814;DHT22;12904;50.088;11.414;2023-05-10T01:18:01;12.10;99.90
24814;DHT22;12904;50.088;11.414;2023-05-10T01:20:32;12.00;99.90
24814;DHT22;12904;50.088;11.414;2023-05-10T01:25:54;12.10;99.90
24814;DHT22;12904;50.088;11.414;2023-05-10T01:28:42;12.20;99.90
24814;DHT22;12904;50.088;11.414;2023-05-10T01:34:06;12.40;99.90
24814;DHT22;12904;50.088;11.414;2023-05-10T01:36:43;12.40;99.90
24814;DHT22;12904;50.088;11.414;2023-05-10T01:47:04;12.60;99.90
24814;DHT22;12904;50.088;11.414;2023-05-10T01:49:34;12.60;99.90
24814;DHT22;12904;50.088;11.414;2023-05-10T01:52:13;12.60;99.90
24814;DHT22;12904;50.088;11.414;2023-05-10T01:54:44;12.60;99.90
24814;DHT22;12904;50.088;11.414;2023-05-10T01:57:13;12.60;99.90
24814;DHT22;12904;50.088;11.414;2023-05-10T01:59:43;12.60;99.90
24814;DHT22;12904;50.088;11.414;2023-05-10T02:02:11;12.60;99.90
24814;DHT22;12904;50.088;11.414;2023-05-10T02:04:39;12.50;99.90
24814;DHT22;12904;50.088;11.414;2023-05-10T02:07:06;12.50;99.90
24814;DHT22;12904;50.088;11.414;2023-05-10T02:09:34;12.40;99.90
24814;DHT22;12904;50.088;11.414;2023-05-10T02:12:03;12.30;99.90
24814;DHT22;12904;50.088;11.414;2023-05-10T02:14:35;12.30;99.90
24814;DHT22;12904;50.088;11.414;2023-05-10T02:17:04;12.20;99.90
24814;DHT22;12904;50.088;11.414;2023-05-10T02:19:32;12.20;99.90
24814;DHT22;12904;50.088;11.414;2023-05-10T02:21:59;12.20;99.90
24814;DHT22;12904;50.088;11.414;2023-05-10T02:24:27;12.20;99.90
24814;DHT22;12904;50.088;11.414;2023-05-10T02:26:54;12.20;99.90
24814;DHT22;12904;50.088;11.414;2023-05-10T02:29:25;12.20;99.90
24814;DHT22;12904;50.088;11.414;2023-05-10T02:31:53;12.20;99.90
24814;DHT22;12904;50.088;11.414;2023-05-10T02:34:21;12.20;99.90
24814;DHT22;12904;50.088;11.414;2023-05-10T02:36:48;12.30;99.90
24814;DHT22;12904;50.088;11.414;2023-05-10T02:39:14;12.30;99.90
24814;DHT22;12904;50.088;11.414;2023-05-10T02:41:41;12.30;99.90
24814;DHT22;12904;50.088;11.414;2023-05-10T02:44:08;12.30;99.90
24814;DHT22;12904;50.088;11.414;2023-05-10T02:46:35;12.30;99.90
24814;DHT22;12904;50.088;11.414;2023-05-10T02:49:02;12.30;99.90
24814;DHT22;12904;50.088;11.414;2023-05-10T02:51:31;12.30;99.90
24814;DHT22;12904;50.088;11.414;2023-05-10T02:53:57;12.20;99.90
24814;DHT22;12904;50.088;11.414;2023-05-10T02:56:28;12.30;99.90
24814;DHT22;12904;50.088;11.414;2023-05-10T02:58:55;12.30;99.90
24814;DHT22;12904;50.088;11.414;2023-05-10T03:01:21;12.20;99.90
24814;DHT22;12904;50.088;11.414;2023-05-10T03:03:46;12.20;99.90
24814;DHT22;12904;50.088;11.414;2023-05-10T03:06:12;12.20;99.90
24814;DHT22;12904;50.088;11.414;2023-05-10T03:08:37;12.20;99.90
24814;DHT22;12904;50.088;11.414;2023-05-10T03:14:02;12.20;99.90
24814;DHT22;12904;50.088;11.414;2023-05-10T03:16:50;12.20;99.90
24814;DHT22;12904;50.088;11.414;2023-05-10T03:19:24;12.20;99.90
24814;DHT22;12904;50.088;11.414;2023-05-10T03:21:53;12.20;99.90
24814;DHT22;12904;50.088;11.414;2023-05-10T03:24:21;12.20;99.90
24814;DHT22;12904;50.088;11.414;2023-05-10T03:26:49;12.20;99.90
24814;DHT22;12904;50.088;11.414;2023-05-10T03:29:15;12.10;99.90
24814;DHT22;12904;50.088;11.414;2023-05-10T03:31:42;12.10;99.90
24814;DHT22;12904;50.088;11.414;2023-05-10T03:34:08;12.00;99.90
24814;DHT22;12904;50.088;11.414;2023-05-10T03:36:34;12.00;99.90
24814;DHT22;12904;50.088;11.414;2023-05-10T03:38:59;12.00;99.90
24814;DHT22;12904;50.088;11.414;2023-05-10T03:41:25;12.00;99.90
24814;DHT22;12904;50.088;11.414;2023-05-10T03:43:51;12.00;99.90
24814;DHT22;12904;50.088;11.414;2023-05-10T03:46:17;11.90;99.90
24814;DHT22;12904;50.088;11.414;2023-05-10T03:48:42;11.90;99.90
24814;DHT22;12904;50.088;11.414;2023-05-10T03:51:08;11.90;99.90
24814;DHT22;12904;50.088;11.414;2023-05-10T03:53:34;11.80;99.90
24814;DHT22;12904;50.088;11.414;2023-05-10T03:55:59;11.70;99.90
24814;DHT22;12904;50.088;11.414;2023-05-10T03:58:25;11.60;99.90
24814;DHT22;12904;50.088;11.414;2023-05-10T04:00:51;11.50;99.90
24814;DHT22;12904;50.088;11.414;2023-05-10T04:03:17;11.50;99.90
24814;DHT22;12904;50.088;11.414;2023-05-10T04:05:43;11.50;99.90
24814;DHT22;12904;50.088;11.414;2023-05-10T04:08:09;11.40;99.90
24814;DHT22;12904;50.088;11.414;2023-05-10T04:10:34;11.40;99.90
24814;DHT22;12904;50.088;11.414;2023-05-10T04:13:00;11.40;99.90
24814;DHT22;12904;50.088;11.414;2023-05-10T04:15:26;11.40;99.90
24814;DHT22;12904;50.088;11.414;2023-05-10T04:17:51;11.30;99.90
24814;DHT22;12904;50.088;11.414;2023-05-10T04:20:17;11.30;99.90
24814;DHT22;12904;50.088;11.414;2023-05-10T04:22:43;11.30;99.90
24814;DHT22;12904;50.088;11.414;2023-05-10T04:25:09;11.20;99.90
24814;DHT22;12904;50.088;11.414;2023-05-10T04:27:34;11.10;99.90
24814;DHT22;12904;50.088;11.414;2023-05-10T04:30:00;11.00;99.90
24814;DHT22;12904;50.088;11.414;2023-05-10T04:32:26;10.90;99.90
24814;DHT22;12904;50.088;11.414;2023-05-10T04:34:51;10.80;99.90
24814;DHT22;12904;50.088;11.414;2023-05-10T04:37:17;10.70;99.90
24814;DHT22;12904;50.088;11.414;2023-05-10T04:39:43;10.70;99.90
24814;DHT22;12904;50.088;11.414;2023-05-10T04:42:09;10.60;99.90
24814;DHT22;12904;50.088;11.414;2023-05-10T04:44:35;10.70;99.90
24814;DHT22;12904;50.088;11.414;2023-05-10T04:47:01;10.70;99.90
24814;DHT22;12904;50.088;11.414;2023-05-10T04:49:28;10.70;99.90
24814;DHT22;12904;50.088;11.414;2023-05-10T04:51:53;10.70;99.90
24814;DHT22;12904;50.088;11.414;2023-05-10T04:54:19;10.60;99.90
24814;DHT22;12904;50.088;11.414;2023-05-10T04:56:45;10.50;99.90
24814;DHT22;12904;50.088;11.414;2023-05-10T04:59:10;10.50;99.90
24814;DHT22;12904;50.088;11.414;2023-05-10T05:01:36;10.60;99.90
24814;DHT22;12904;50.088;11.414;2023-05-10T05:04:02;10.50;99.90
24814;DHT22;12904;50.088;11.414;2023-05-10T05:06:27;10.50;99.90
24814;DHT22;12904;50.088;11.414;2023-05-10T05:08:53;10.50;99.90
24814;DHT22;12904;50.088;11.414;2023-05-10T05:11:19;10.60;99.90
24814;DHT22;12904;50.088;11.414;2023-05-10T05:13:45;10.60;99.90
24814;DHT22;12904;50.088;11.414;2023-05-10T05:16:10;10.50;99.90
24814;DHT22;12904;50.088;11.414;2023-05-10T05:18:36;10.50;99.90
24814;DHT22;12904;50.088;11.414;2023-05-10T05:21:02;10.40;99.90
24814;DHT22;12904;50.088;11.414;2023-05-10T05:23:28;10.40;99.90
24814;DHT22;12904;50.088;11.414;2023-05-10T05:25:53;10.40;99.90
24814;DHT22;12904;50.088;11.414;2023-05-10T05:28:20;10.40;99.90
24814;DHT22;12904;50.088;11.414;2023-05-10T05:30:46;10.40;99.90
24814;DHT22;12904;50.088;11.414;2023-05-10T05:33:13;10.40;99.90
24814;DHT22;12904;50.088;11.414;2023-05-10T05:35:39;10.40;99.90
24814;DHT22;12904;50.088;11.414;2023-05-10T05:38:05;10.40;99.90
24814;DHT22;12904;50.088;11.414;2023-05-10T05:40:31;10.50;99.90
24814;DHT22;12904;50.088;11.414;2023-05-10T05:42:57;10.50;99.90
24814;DHT22;12904;50.088;11.414;2023-05-10T05:45:22;10.50;99.90
24814;DHT22;12904;50.088;11.414;2023-05-10T05:47:48;10.50;99.90
24814;DHT22;12904;50.088;11.414;2023-05-10T05:50:14;10.50;99.90
24814;DHT22;12904;50.088;11.414;2023-05-10T05:52:39;10.40;99.90
24814;DHT22;12904;50.088;11.414;2023-05-10T05:55:05;10.40;99.90
24814;DHT22;12904;50.088;11.414;2023-05-10T05:57:31;10.30;99.90
24814;DHT22;12904;50.088;11.414;2023-05-10T05:59:56;10.30;99.90
24814;DHT22;12904;50.088;11.414;2023-05-10T06:02:22;10.30;99.90
24814;DHT22;12904;50.088;11.414;2023-05-10T06:04:48;10.20;99.90
24814;DHT22;12904;50.088;11.414;2023-05-10T06:07:13;10.30;99.90
24814;DHT22;12904;50.088;11.414;2023-05-10T06:09:39;10.30;99.90
24814;DHT22;12904;50.088;11.414;2023-05-10T06:12:05;10.40;99.90
24814;DHT22;12904;50.088;11.414;2023-05-10T06:14:30;10.40;99.90
24814;DHT22;12904;50.088;11.414;2023-05-10T06:16:56;10.30;99.90
24814;DHT22;12904;50.088;11.414;2023-05-10T06:19:21;10.40;99.90
24814;DHT22;12904;50.088;11.414;2023-05-10T06:21:47;10.30;99.90
24814;DHT22;12904;50.088;11.414;2023-05-10T06:24:13;10.40;99.90
24814;DHT22;12904;50.088;11.414;2023-05-10T06:26:38;10.50;99.90
24814;DHT22;12904;50.088;11.414;2023-05-10T06:29:04;10.60;99.90
24814;DHT22;12904;50.088;11.414;2023-05-10T06:31:29;10.70;99.90
24814;DHT22;12904;50.088;11.414;2023-05-10T06:33:55;10.80;99.90
24814;DHT22;12904;50.088;11.414;2023-05-10T06:36:22;10.90;99.90
24814;DHT22;12904;50.088;11.414;2023-05-10T06:38:49;11.00;99.90
24814;DHT22;12904;50.088;11.414;2023-05-10T06:41:16;11.10;99.90
24814;DHT22;12904;50.088;11.414;2023-05-10T06:43:42;11.20;99.90
24814;DHT22;12904;50.088;11.414;2023-05-10T06:46:08;11.20;99.90
24814;DHT22;12904;50.088;11.414;2023-05-10T06:48:34;11.30;99.90
24814;DHT22;12904;50.088;11.414;2023-05-10T06:51:00;11.30;99.90
24814;DHT22;12904;50.088;11.414;2023-05-10T06:53:25;11.30;99.90
24814;DHT22;12904;50.088;11.414;2023-05-10T06:55:51;11.30;99.90
24814;DHT22;12904;50.088;11.414;2023-05-10T06:58:16;11.40;99.90
24814;DHT22;12904;50.088;11.414;2023-05-10T07:00:42;11.40;99.90
24814;DHT22;12904;50.088;11.414;2023-05-10T07:03:09;11.40;99.90
24814;DHT22;12904;50.088;11.414;2023-05-10T07:05:36;11.40;99.90
24814;DHT22;12904;50.088;11.414;2023-05-10T07:08:01;11.40;99.90
24814;DHT22;12904;50.088;11.414;2023-05-10T07:10:27;11.60;99.90
24814;DHT22;12904;50.088;11.414;2023-05-10T07:12:52;11.70;99.90
24814;DHT22;12904;50.088;11.414;2023-05-10T07:15:18;11.80;99.90
24814;DHT22;12904;50.088;11.414;2023-05-10T07:17:44;11.90;99.90
24814;DHT22;12904;50.088;11.414;2023-05-10T07:20:11;11.90;99.90
24814;DHT22;12904;50.088;11.414;2023-05-10T07:22:36;12.00;99.90
24814;DHT22;12904;50.088;11.414;2023-05-10T07:25:02;12.10;99.90
24814;DHT22;12904;50.088;11.414;2023-05-10T07:27:28;12.10;99.90
24814;DHT22;12904;50.088;11.414;2023-05-10T07:29:53;12.30;99.90
24814;DHT22;12904;50.088;11.414;2023-05-10T07:32:20;12.40;99.90
24814;DHT22;12904;50.088;11.414;2023-05-10T07:34:46;12.70;99.90
24814;DHT22;12904;50.088;11.414;2023-05-10T07:37:11;13.10;99.90
24814;DHT22;12904;50.088;11.414;2023-05-10T07:39:37;13.60;99.90
24814;DHT22;12904;50.088;11.414;2023-05-10T07:42:03;14.10;99.90
24814;DHT22;12904;50.088;11.414;2023-05-10T07:44:29;14.40;99.90
24814;DHT22;12904;50.088;11.414;2023-05-10T07:46:54;14.70;99.90
24814;DHT22;12904;50.088;11.414;2023-05-10T07:49:21;14.80;99.90
24814;DHT22;12904;50.088;11.414;2023-05-10T07:51:49;14.70;99.90
24814;DHT22;12904;50.088;11.414;2023-05-10T07:54:15;14.70;99.90
24814;DHT22;12904;50.088;11.414;2023-05-10T07:56:41;14.60;99.90
24814;DHT22;12904;50.088;11.414;2023-05-10T07:59:15;14.50;99.90
24814;DHT22;12904;50.088;11.414;2023-05-10T08:01:41;14.40;99.90
24814;DHT22;12904;50.088;11.414;2023-05-10T08:04:07;14.20;99.90
24814;DHT22;12904;50.088;11.414;2023-05-10T08:06:32;14.10;99.90
24814;DHT22;12904;50.088;11.414;2023-05-10T08:08:58;13.90;99.90
24814;DHT22;12904;50.088;11.414;2023-05-10T08:11:24;13.90;99.90
24814;DHT22;12904;50.088;11.414;2023-05-10T08:13:50;13.90;99.90
24814;DHT22;12904;50.088;11.414;2023-05-10T08:16:16;13.90;99.90
24814;DHT22;12904;50.088;11.414;2023-05-10T08:18:43;14.00;99.90
24814;DHT22;12904;50.088;11.414;2023-05-10T08:21:10;14.00;99.90
24814;DHT22;12904;50.088;11.414;2023-05-10T08:23:36;14.20;99.90
24814;DHT22;12904;50.088;11.414;2023-05-10T08:26:02;14.50;99.90
24814;DHT22;12904;50.088;11.414;2023-05-10T08:28:28;14.70;99.90
24814;DHT22;12904;50.088;11.414;2023-05-10T08:30:54;15.00;99.90
24814;DHT22;12904;50.088;11.414;2023-05-10T08:33:19;15.30;99.90
24814;DHT22;12904;50.088;11.414;2023-05-10T08:35:45;15.60;99.90
24814;DHT22;12904;50.088;11.414;2023-05-10T08:38:11;15.70;99.90
24814;DHT22;12904;50.088;11.414;2023-05-10T08:40:38;15.90;99.90
24814;DHT22;12904;50.088;11.414;2023-05-10T08:43:06;15.90;99.90
24814;DHT22;12904;50.088;11.414;2023-05-10T08:45:37;15.80;99.90
24814;DHT22;12904;50.088;11.414;2023-05-10T08:48:06;15.40;99.90
24814;DHT22;12904;50.088;11.414;2023-05-10T08:50:36;15.00;99.90
24814;DHT22;12904;50.088;11.414;2023-05-10T08:53:06;14.70;99.90
24814;DHT22;12904;50.088;11.414;2023-05-10T08:55:35;14.50;99.90
24814;DHT22;12904;50.088;11.414;2023-05-10T08:58:06;14.50;99.90
24814;DHT22;12904;50.088;11.414;2023-05-10T09:00:33;14.70;99.90
24814;DHT22;12904;50.088;11.414;2023-05-10T09:03:00;15.00;99.90
24814;DHT22;12904;50.088;11.414;2023-05-10T09:05:27;15.30;99.90
24814;DHT22;12904;50.088;11.414;2023-05-10T09:07:55;15.50;99.90
24814;DHT22;12904;50.088;11.414;2023-05-10T09:10:23;15.70;99.90
24814;DHT22;12904;50.088;11.414;2023-05-10T09:12:52;15.80;99.90
24814;DHT22;12904;50.088;11.414;2023-05-10T09:15:19;16.00;99.90
24814;DHT22;12904;50.088;11.414;2023-05-10T09:17:46;16.10;99.90
24814;DHT22;12904;50.088;11.414;2023-05-10T09:20:11;16.30;99.90
24814;DHT22;12904;50.088;11.414;2023-05-10T09:22:37;16.30;99.90
24814;DHT22;12904;50.088;11.414;2023-05-10T09:25:12;16.40;99.90
24814;DHT22;12904;50.088;11.414;2023-05-10T09:27:39;16.60;99.90
24814;DHT22;12904;50.088;11.414;2023-05-10T09:30:06;16.80;99.90
24814;DHT22;12904;50.088;11.414;2023-05-10T09:32:47;17.10;99.90
24814;DHT22;12904;50.088;11.414;2023-05-10T09:35:15;17.50;99.90
24814;DHT22;12904;50.088;11.414;2023-05-10T09:37:44;17.80;99.90
24814;DHT22;12904;50.088;11.414;2023-05-10T09:40:29;18.20;99.90
24814;DHT22;12904;50.088;11.414;2023-05-10T09:43:07;18.60;99.90
24814;DHT22;12904;50.088;11.414;2023-05-10T09:45:35;18.90;99.90
24814;DHT22;12904;50.088;11.414;2023-05-10T09:48:02;18.90;99.90
24814;DHT22;12904;50.088;11.414;2023-05-10T09:50:28;18.90;99.90
24814;DHT22;12904;50.088;11.414;2023-05-10T09:52:58;18.40;99.90
24814;DHT22;12904;50.088;11.414;2023-05-10T09:55:44;17.90;99.90
24814;DHT22;12904;50.088;11.414;2023-05-10T09:58:12;17.60;99.90
24814;DHT22;12904;50.088;11.414;2023-05-10T10:00:40;17.50;99.90
24814;DHT22;12904;50.088;11.414;2023-05-10T10:03:12;17.70;99.90
24814;DHT22;12904;50.088;11.414;2023-05-10T10:05:40;17.90;99.90
24814;DHT22;12904;50.088;11.414;2023-05-10T10:08:07;18.10;99.90
24814;DHT22;12904;50.088;11.414;2023-05-10T10:10:33;18.20;99.90
24814;DHT22;12904;50.088;11.414;2023-05-10T10:12:59;18.30;99.90
24814;DHT22;12904;50.088;11.414;2023-05-10T10:15:25;18.30;99.90
24814;DHT22;12904;50.088;11.414;2023-05-10T10:17:52;18.10;99.90
24814;DHT22;12904;50.088;11.414;2023-05-10T10:20:19;17.90;99.90
24814;DHT22;12904;50.088;11.414;2023-05-10T10:22:45;17.70;99.90
24814;DHT22;12904;50.088;11.414;2023-05-10T10:25:12;17.50;99.90
24814;DHT22;12904;50.088;11.414;2023-05-10T10:30:16;17.70;99.90
24814;DHT22;12904;50.088;11.414;2023-05-10T10:35:22;18.00;99.90
24814;DHT22;12904;50.088;11.414;2023-05-10T10:37:50;17.90;99.90
24814;DHT22;12904;50.088;11.414;2023-05-10T10:42:55;18.20;99.90
24814;DHT22;12904;50.088;11.414;2023-05-10T10:45:23;18.50;99.90
24814;DHT22;12904;50.088;11.414;2023-05-10T10:47:48;18.90;99.90
24814;DHT22;12904;50.088;11.414;2023-05-10T10:50:15;19.40;99.90
24814;DHT22;12904;50.088;11.414;2023-05-10T10:52:44;19.80;99.90
24814;DHT22;12904;50.088;11.414;2023-05-10T10:55:18;20.10;99.90
24814;DHT22;12904;50.088;11.414;2023-05-10T11:00:27;20.40;99.90
24814;DHT22;12904;50.088;11.414;2023-05-10T11:10:34;19.40;99.90
24814;DHT22;12904;50.088;11.414;2023-05-10T11:15:52;18.60;99.90
24814;DHT22;12904;50.088;11.414;2023-05-10T11:18:19;17.90;99.90
24814;DHT22;12904;50.088;11.414;2023-05-10T11:20:54;17.40;99.90
24814;DHT22;12904;50.088;11.414;2023-05-10T11:23:20;16.90;99.90
24814;DHT22;12904;50.088;11.414;2023-05-10T11:25:47;16.40;99.90
24814;DHT22;12904;50.088;11.414;2023-05-10T11:28:13;16.10;99.90
24814;DHT22;12904;50.088;11.414;2023-05-10T11:30:41;15.80;99.90
24814;DHT22;12904;50.088;11.414;2023-05-10T11:33:09;15.50;99.90
24814;DHT22;12904;50.088;11.414;2023-05-10T11:35:39;15.30;99.90
24814;DHT22;12904;50.088;11.414;2023-05-10T11:38:06;15.10;99.90
24814;DHT22;12904;50.088;11.414;2023-05-10T11:40:32;15.00;99.90
24814;DHT22;12904;50.088;11.414;2023-05-10T11:42:58;15.00;99.90
24814;DHT22;12904;50.088;11.414;2023-05-10T11:45:25;15.00;99.90
24814;DHT22;12904;50.088;11.414;2023-05-10T11:47:51;15.00;99.90
24814;DHT22;12904;50.088;11.414;2023-05-10T11:50:17;15.00;99.90
24814;DHT22;12904;50.088;11.414;2023-05-10T11:52:43;15.00;99.90
24814;DHT22;12904;50.088;11.414;2023-05-10T11:55:09;15.00;99.90
24814;DHT22;12904;50.088;11.414;2023-05-10T11:57:35;15.10;99.90
24814;DHT22;12904;50.088;11.414;2023-05-10T12:00:01;15.10;99.90
24814;DHT22;12904;50.088;11.414;2023-05-10T12:02:29;15.10;99.90
24814;DHT22;12904;50.088;11.414;2023-05-10T12:04:55;15.30;99.90
24814;DHT22;12904;50.088;11.414;2023-05-10T12:07:21;15.40;99.90
24814;DHT22;12904;50.088;11.414;2023-05-10T12:10:06;15.50;99.90
24814;DHT22;12904;50.088;11.414;2023-05-10T12:12:52;15.80;99.90
24814;DHT22;12904;50.088;11.414;2023-05-10T12:15:23;16.10;99.90
24814;DHT22;12904;50.088;11.414;2023-05-10T12:17:49;16.40;99.90
24814;DHT22;12904;50.088;11.414;2023-05-10T12:20:23;16.70;99.90
24814;DHT22;12904;50.088;11.414;2023-05-10T12:22:52;17.20;99.90
24814;DHT22;12904;50.088;11.414;2023-05-10T12:25:19;17.70;99.90
24814;DHT22;12904;50.088;11.414;2023-05-10T12:27:56;18.10;99.90
24814;DHT22;12904;50.088;11.414;2023-05-10T12:30:25;18.50;99.90
24814;DHT22;12904;50.088;11.414;2023-05-10T12:32:51;18.80;99.90
24814;DHT22;12904;50.088;11.414;2023-05-10T12:35:17;19.00;99.90
24814;DHT22;12904;50.088;11.414;2023-05-10T12:37:47;19.20;99.90
24814;DHT22;12904;50.088;11.414;2023-05-10T12:40:13;19.20;99.90
24814;DHT22;12904;50.088;11.414;2023-05-10T12:42:39;19.10;99.90
24814;DHT22;12904;50.088;11.414;2023-05-10T12:45:06;19.20;99.90
24814;DHT22;12904;50.088;11.414;2023-05-10T12:47:32;19.20;99.90
24814;DHT22;12904;50.088;11.414;2023-05-10T12:49:59;19.20;99.90
24814;DHT22;12904;50.088;11.414;2023-05-10T12:52:25;19.40;99.90
24814;DHT22;12904;50.088;11.414;2023-05-10T12:54:51;19.60;99.90
24814;DHT22;12904;50.088;11.414;2023-05-10T12:57:18;19.70;99.90
24814;DHT22;12904;50.088;11.414;2023-05-10T12:59:44;20.00;99.90
24814;DHT22;12904;50.088;11.414;2023-05-10T13:02:09;20.30;99.90
24814;DHT22;12904;50.088;11.414;2023-05-10T13:04:35;20.40;99.90
24814;DHT22;12904;50.088;11.414;2023-05-10T13:07:05;20.60;99.90
24814;DHT22;12904;50.088;11.414;2023-05-10T13:09:31;20.70;99.90
24814;DHT22;12904;50.088;11.414;2023-05-10T13:11:56;20.70;99.90
24814;DHT22;12904;50.088;11.414;2023-05-10T13:14:22;20.70;99.90
24814;DHT22;12904;50.088;11.414;2023-05-10T13:16:48;20.40;99.90
24814;DHT22;12904;50.088;11.414;2023-05-10T13:19:14;20.10;99.90
24814;DHT22;12904;50.088;11.414;2023-05-10T13:21:39;20.00;99.90
24814;DHT22;12904;50.088;11.414;2023-05-10T13:24:06;20.00;99.90
24814;DHT22;12904;50.088;11.414;2023-05-10T13:26:32;19.90;99.90
24814;DHT22;12904;50.088;11.414;2023-05-10T13:28:58;19.90;99.90
24814;DHT22;12904;50.088;11.414;2023-05-10T13:31:24;19.90;99.90
24814;DHT22;12904;50.088;11.414;2023-05-10T13:33:49;19.80;99.90
24814;DHT22;12904;50.088;11.414;2023-05-10T13:36:15;19.70;99.90
24814;DHT22;12904;50.088;11.414;2023-05-10T13:38:41;19.80;99.90
24814;DHT22;12904;50.088;11.414;2023-05-10T13:41:06;20.00;99.90
24814;DHT22;12904;50.088;11.414;2023-05-10T13:43:32;20.10;99.90
24814;DHT22;12904;50.088;11.414;2023-05-10T13:45:58;20.00;99.90
24814;DHT22;12904;50.088;11.414;2023-05-10T13:48:23;20.00;99.90
24814;DHT22;12904;50.088;11.414;2023-05-10T13:50:49;20.00;99.90
24814;DHT22;12904;50.088;11.414;2023-05-10T13:53:15;20.10;99.90
24814;DHT22;12904;50.088;11.414;2023-05-10T13:55:41;20.10;99.90
24814;DHT22;12904;50.088;11.414;2023-05-10T13:58:07;20.00;99.90
24814;DHT22;12904;50.088;11.414;2023-05-10T14:00:32;20.00;98.80
24814;DHT22;12904;50.088;11.414;2023-05-10T14:02:58;19.90;96.10
24814;DHT22;12904;50.088;11.414;2023-05-10T14:05:23;19.80;95.70
24814;DHT22;12904;50.088;11.414;2023-05-10T14:07:50;19.70;96.80
24814;DHT22;12904;50.088;11.414;2023-05-10T14:10:16;19.50;96.60
24814;DHT22;12904;50.088;11.414;2023-05-10T14:12:41;19.40;98.00
24814;DHT22;12904;50.088;11.414;2023-05-10T14:15:07;19.40;97.60
24814;DHT22;12904;50.088;11.414;2023-05-10T14:17:35;19.20;97.10
24814;DHT22;12904;50.088;11.414;2023-05-10T14:20:01;19.10;99.30
24814;DHT22;12904;50.088;11.414;2023-05-10T14:22:27;19.00;99.90
24814;DHT22;12904;50.088;11.414;2023-05-10T14:24:53;18.80;99.90
24814;DHT22;12904;50.088;11.414;2023-05-10T14:27:18;18.70;99.90
24814;DHT22;12904;50.088;11.414;2023-05-10T14:29:44;18.60;99.90
24814;DHT22;12904;50.088;11.414;2023-05-10T14:32:10;18.50;99.90
24814;DHT22;12904;50.088;11.414;2023-05-10T14:34:36;18.30;99.90
24814;DHT22;12904;50.088;11.414;2023-05-10T14:37:01;18.30;99.90
24814;DHT22;12904;50.088;11.414;2023-05-10T14:39:27;18.10;99.90
24814;DHT22;12904;50.088;11.414;2023-05-10T14:41:55;17.90;99.90
24814;DHT22;12904;50.088;11.414;2023-05-10T14:44:21;17.70;99.90
24814;DHT22;12904;50.088;11.414;2023-05-10T14:46:47;17.40;99.90
24814;DHT22;12904;50.088;11.414;2023-05-10T14:49:13;17.20;99.90
24814;DHT22;12904;50.088;11.414;2023-05-10T14:51:39;17.10;99.90
24814;DHT22;12904;50.088;11.414;2023-05-10T14:54:05;17.00;99.90
24814;DHT22;12904;50.088;11.414;2023-05-10T14:56:31;16.80;99.90
24814;DHT22;12904;50.088;11.414;2023-05-10T14:58:57;16.70;99.90
24814;DHT22;12904;50.088;11.414;2023-05-10T15:01:23;16.60;99.90
24814;DHT22;12904;50.088;11.414;2023-05-10T15:03:49;16.50;99.90
24814;DHT22;12904;50.088;11.414;2023-05-10T15:06:15;16.50;99.90
24814;DHT22;12904;50.088;11.414;2023-05-10T15:08:43;16.50;99.90
24814;DHT22;12904;50.088;11.414;2023-05-10T15:11:09;16.50;99.90
24814;DHT22;12904;50.088;11.414;2023-05-10T15:13:34;16.50;99.90
24814;DHT22;12904;50.088;11.414;2023-05-10T15:16:00;16.50;99.90
24814;DHT22;12904;50.088;11.414;2023-05-10T15:18:26;16.50;99.90
24814;DHT22;12904;50.088;11.414;2023-05-10T15:20:52;16.60;99.90
24814;DHT22;12904;50.088;11.414;2023-05-10T15:23:17;16.60;99.90
24814;DHT22;12904;50.088;11.414;2023-05-10T15:25:43;16.60;99.90
24814;DHT22;12904;50.088;11.414;2023-05-10T15:28:09;16.60;99.90
24814;DHT22;12904;50.088;11.414;2023-05-10T15:30:34;16.60;99.90
24814;DHT22;12904;50.088;11.414;2023-05-10T15:33:00;16.60;99.90
24814;DHT22;12904;50.088;11.414;2023-05-10T15:35:26;16.50;99.90
24814;DHT22;12904;50.088;11.414;2023-05-10T15:37:51;16.30;99.90
24814;DHT22;12904;50.088;11.414;2023-05-10T15:40:17;16.20;99.90
24814;DHT22;12904;50.088;11.414;2023-05-10T15:42:43;16.00;99.90
24814;DHT22;12904;50.088;11.414;2023-05-10T15:45:09;15.80;99.90
24814;DHT22;12904;50.088;11.414;2023-05-10T15:47:36;15.70;99.90
24814;DHT22;12904;50.088;11.414;2023-05-10T15:50:01;15.70;99.90